Terminal Aerodrome Forecast
Issued by NWS

Home | Current Version | Previous Version | Text Only | Print | Product List | Glossary On
Versions: 1 2 3 4 5 6 7 8 9 10 11 12 13 14 15 16
000
FTUS43 KICT 250522
TAFSLN
TAF
KSLN 250522Z 2506/2606 09014G20KT 6SM -TSRA SCT025 OVC040CB
      TEMPO 2506/2509 VRB20G35KT 4SM TSRA OVC020CB
     FM250900 15013KT P6SM VCTS BKN025CB
     FM251400 18016G23KT P6SM BKN035=

USA.gov is the U.S. government's official web portal to all federal, state and local government web resources and services.